Time;durP1;ratioP1;P1;durP2;ratioP2;P2;SDS_P1;SDS_P2;PMS_P1;PMS_P2;Temp;Humidity;BMP_temperature;BMP_pressure;BME280_temperature;BME280_humidity;BME280_pressure;Samples;Min_cycle;Max_cycle;Signal;HPM_P1;HPM_P2
2023/05/18 00:01:21;;;;;;;9.57;2.70;;;9.30;99.90;;;;;;5035413;28;20210;-62
2023/05/18 00:03:53;;;;;;;3.20;2.43;;;9.50;99.90;;;;;;5036822;28;20603;-62
2023/05/18 00:06:21;;;;;;;10.00;2.43;;;9.50;99.90;;;;;;5033944;28;20216;-62
2023/05/18 00:08:48;;;;;;;5.07;2.73;;;9.50;99.90;;;;;;5038071;28;20639;-62
2023/05/18 00:11:16;;;;;;;3.57;2.40;;;9.50;99.90;;;;;;5039379;28;20205;-62
2023/05/18 00:13:43;;;;;;;8.03;2.80;;;9.30;99.90;;;;;;5041823;28;20204;-62
2023/05/18 00:16:12;;;;;;;5.60;2.33;;;9.20;99.90;;;;;;5043622;28;20716;-61
2023/05/18 00:18:39;;;;;;;8.87;3.23;;;9.20;99.90;;;;;;5041390;28;20243;-59
2023/05/18 00:21:07;;;;;;;3.87;2.30;;;9.00;99.90;;;;;;5038054;28;20261;-62
2023/05/18 00:23:38;;;;;;;6.73;4.20;;;9.00;99.90;;;;;;5035385;28;20211;-62
2023/05/18 00:26:05;;;;;;;6.87;2.50;;;8.90;99.90;;;;;;5032689;28;21688;-61
2023/05/18 00:28:32;;;;;;;5.67;2.33;;;9.10;99.90;;;;;;5039620;28;20216;-62
2023/05/18 00:30:59;;;;;;;5.17;2.07;;;9.10;99.90;;;;;;5034472;28;20672;-62
2023/05/18 00:33:26;;;;;;;8.30;2.13;;;9.10;99.90;;;;;;5037537;28;20832;-62
2023/05/18 00:35:53;;;;;;;6.97;2.10;;;9.10;99.90;;;;;;5034856;28;20200;-61
2023/05/18 00:38:20;;;;;;;5.67;2.40;;;8.90;99.90;;;;;;5036150;28;20211;-62
2023/05/18 00:40:46;;;;;;;4.87;2.90;;;8.70;99.90;;;;;;5032062;28;20201;-60
2023/05/18 00:43:13;;;;;;;7.13;3.17;;;8.70;99.90;;;;;;5035171;28;20201;-61
2023/05/18 00:45:40;;;;;;;8.93;3.40;;;8.70;99.90;;;;;;5033257;28;20208;-60
2023/05/18 00:48:07;;;;;;;7.07;4.10;;;8.70;99.90;;;;;;5036223;28;20248;-60
2023/05/18 00:50:35;;;;;;;9.40;4.97;;;8.80;99.90;;;;;;5050187;28;20196;-62
2023/05/18 00:53:02;;;;;;;9.70;3.73;;;8.80;99.90;;;;;;5036428;28;20211;-60
2023/05/18 00:55:29;;;;;;;8.73;3.67;;;8.80;99.90;;;;;;5036237;28;20200;-59
2023/05/18 00:58:01;;;;;;;18.63;8.20;;;8.90;99.90;;;;;;5035857;28;20820;-60
2023/05/18 01:00:28;;;;;;;9.40;2.97;;;8.80;99.90;;;;;;5030556;28;20211;-60
2023/05/18 01:02:55;;;;;;;7.13;2.30;;;8.80;99.90;;;;;;5035155;28;20215;-60
2023/05/18 01:05:23;;;;;;;6.00;2.23;;;8.90;99.90;;;;;;5032949;28;20963;-60
2023/05/18 01:07:50;;;;;;;6.33;1.97;;;8.80;99.90;;;;;;5031446;28;20216;-60
2023/05/18 01:10:18;;;;;;;5.70;2.17;;;8.70;99.90;;;;;;5040056;28;20251;-60
2023/05/18 01:12:55;;;;;;;4.63;1.97;;;8.40;99.90;;;;;;5034475;28;20286;-60
2023/05/18 01:15:36;;;;;;;5.60;1.87;;;8.60;99.90;;;;;;5038745;28;20244;-60
2023/05/18 01:18:14;;;;;;;12.17;4.27;;;8.60;99.90;;;;;;5039057;28;20253;-60
2023/05/18 01:21:12;;;;;;;5.03;2.63;;;8.60;99.90;;;;;;5053671;28;20322;-60
2023/05/18 01:24:25;;;;;;;7.53;2.23;;;8.60;99.90;;;;;;5039186;28;20595;-61
2023/05/18 01:26:57;;;;;;;5.30;1.70;;;8.50;99.90;;;;;;4970854;28;20221;-60
2023/05/18 01:29:27;;;;;;;4.57;2.00;;;8.30;99.90;;;;;;4973203;28;20636;-61
2023/05/18 01:31:55;;;;;;;2.93;2.30;;;8.30;99.90;;;;;;5007266;28;20675;-63
2023/05/18 01:34:22;;;;;;;7.23;2.40;;;8.40;99.90;;;;;;5035060;28;20207;-60
2023/05/18 01:36:49;;;;;;;5.07;2.37;;;8.40;99.90;;;;;;5039842;28;21450;-60
2023/05/18 01:39:16;;;;;;;5.37;2.00;;;8.40;99.90;;;;;;5037227;28;20253;-65
2023/05/18 01:41:58;;;;;;;5.40;2.23;;;8.40;99.90;;;;;;5039349;28;20677;-60
2023/05/18 01:44:52;;;;;;;6.63;3.00;;;8.40;99.90;;;;;;5034018;28;20207;-60
2023/05/18 01:47:19;;;;;;;6.60;2.40;;;8.50;99.90;;;;;;5036376;28;20305;-60
2023/05/18 01:50:12;;;;;;;5.37;2.20;;;8.30;99.90;;;;;;5056264;28;20209;-60
2023/05/18 01:52:45;;;;;;;5.73;2.40;;;8.30;99.90;;;;;;5036549;28;20222;-62
2023/05/18 01:55:14;;;;;;;3.97;2.23;;;8.40;99.90;;;;;;5039383;28;20566;-58
2023/05/18 01:57:44;;;;;;;6.33;2.50;;;8.50;99.90;;;;;;5038813;28;20216;-58
2023/05/18 02:00:12;;;;;;;5.83;2.27;;;8.50;99.90;;;;;;5039374;28;20204;-58
2023/05/18 02:02:39;;;;;;;4.23;2.60;;;8.50;99.90;;;;;;5038104;28;20200;-59
2023/05/18 02:05:11;;;;;;;4.07;2.40;;;8.40;99.90;;;;;;5041110;28;20292;-58
2023/05/18 02:07:39;;;;;;;3.07;1.80;;;8.50;99.90;;;;;;5037609;28;20227;-58
2023/05/18 02:10:07;;;;;;;5.20;1.63;;;8.50;99.90;;;;;;5041851;28;20622;-58
2023/05/18 02:12:34;;;;;;;3.90;2.27;;;8.50;99.90;;;;;;5036955;28;20210;-58
2023/05/18 02:15:04;;;;;;;8.03;2.33;;;8.40;99.90;;;;;;5048210;28;20758;-58
2023/05/18 02:17:38;;;;;;;5.13;2.20;;;8.40;99.90;;;;;;5046293;28;20204;-59
2023/05/18 02:20:06;;;;;;;4.07;2.10;;;8.50;99.90;;;;;;5035145;28;20227;-62
2023/05/18 02:22:34;;;;;;;9.70;2.47;;;8.50;99.90;;;;;;5039949;28;20207;-58
2023/05/18 02:25:01;;;;;;;4.77;2.70;;;8.40;99.90;;;;;;5041247;28;20694;-58
2023/05/18 02:27:28;;;;;;;7.73;3.00;;;8.30;99.90;;;;;;5036803;28;20222;-58
2023/05/18 02:29:55;;;;;;;5.20;2.10;;;8.20;99.90;;;;;;5044750;28;20204;-58
2023/05/18 02:32:22;;;;;;;5.13;2.30;;;8.30;99.90;;;;;;5039652;28;20227;-59
2023/05/18 02:34:52;;;;;;;4.87;2.57;;;8.20;99.90;;;;;;5035965;28;20859;-59
2023/05/18 02:37:21;;;;;;;4.93;2.43;;;8.10;99.90;;;;;;5036830;28;20708;-58
2023/05/18 02:39:49;;;;;;;4.30;2.80;;;8.10;99.90;;;;;;5038070;28;20199;-58
2023/05/18 02:42:16;;;;;;;6.87;2.40;;;8.20;99.90;;;;;;5036412;28;20200;-58
2023/05/18 02:44:43;;;;;;;7.53;2.40;;;8.10;99.90;;;;;;5038551;28;20578;-58
2023/05/18 02:47:10;;;;;;;6.07;2.20;;;8.20;99.90;;;;;;5040435;28;20600;-59
2023/05/18 02:49:37;;;;;;;6.53;2.73;;;8.10;99.90;;;;;;5040738;28;20287;-59
2023/05/18 02:52:04;;;;;;;6.47;2.67;;;8.10;99.90;;;;;;5036953;28;20679;-58
2023/05/18 02:54:31;;;;;;;4.87;1.87;;;8.00;99.90;;;;;;5035103;28;20656;-58
2023/05/18 02:56:58;;;;;;;6.57;2.70;;;8.00;99.90;;;;;;5035185;28;20223;-58
2023/05/18 02:59:25;;;;;;;8.23;2.70;;;7.90;99.50;;;;;;5036069;28;20210;-61
2023/05/18 03:01:52;;;;;;;8.53;2.93;;;8.00;99.90;;;;;;5034783;28;20196;-58
2023/05/18 03:04:20;;;;;;;7.63;2.80;;;8.00;99.90;;;;;;5039470;28;20209;-58
2023/05/18 03:06:51;;;;;;;3.27;2.30;;;8.00;99.90;;;;;;5035051;28;20210;-58
2023/05/18 03:09:18;;;;;;;4.53;2.70;;;8.00;99.90;;;;;;5035095;28;20220;-58
2023/05/18 03:11:45;;;;;;;4.43;2.00;;;8.00;1.00;;;;;;5031641;28;20199;-58
2023/05/18 03:14:12;;;;;;;4.30;2.33;;;8.10;99.90;;;;;;5040184;28;20925;-58
2023/05/18 03:16:39;;;;;;;8.23;2.37;;;7.90;99.90;;;;;;5040138;28;20651;-58
2023/05/18 03:19:06;;;;;;;6.47;2.90;;;7.90;99.90;;;;;;5042671;28;20575;-57
2023/05/18 03:21:34;;;;;;;7.20;2.47;;;8.00;99.90;;;;;;5040466;28;20218;-58
2023/05/18 03:24:02;;;;;;;5.10;2.70;;;8.00;99.90;;;;;;5038684;28;20212;-58
2023/05/18 03:26:32;;;;;;;4.93;2.53;;;8.00;99.90;;;;;;5040796;28;20571;-58
2023/05/18 03:29:00;;;;;;;4.83;2.60;;;8.00;99.90;;;;;;5039099;28;20590;-58
2023/05/18 03:31:27;;;;;;;4.50;2.53;;;7.80;99.90;;;;;;5044660;28;20668;-58
2023/05/18 03:33:54;;;;;;;8.67;2.70;;;7.80;99.90;;;;;;5042766;28;20225;-58
2023/05/18 03:36:21;;;;;;;10.50;2.87;;;7.70;99.90;;;;;;5039799;28;20200;-57
2023/05/18 03:38:48;;;;;;;4.70;2.80;;;7.60;99.90;;;;;;5041453;28;20203;-58
2023/05/18 03:41:15;;;;;;;3.60;2.00;;;7.60;99.90;;;;;;5040894;28;22063;-58
2023/05/18 03:43:42;;;;;;;9.43;2.83;;;7.50;99.90;;;;;;5038870;28;20241;-58
2023/05/18 03:46:09;;;;;;;9.13;2.80;;;7.60;99.90;;;;;;5041035;28;20660;-59
2023/05/18 03:48:36;;;;;;;7.80;3.73;;;7.70;99.90;;;;;;5038800;28;20684;-58
2023/05/18 03:51:04;;;;;;;5.17;2.83;;;7.60;99.90;;;;;;5040302;28;20405;-58
2023/05/18 03:53:32;;;;;;;5.87;2.50;;;7.60;99.90;;;;;;5036614;28;20578;-58
2023/05/18 03:55:59;;;;;;;6.33;2.50;;;7.50;99.90;;;;;;5039384;28;20246;-58
2023/05/18 03:58:26;;;;;;;5.67;2.73;;;7.50;99.90;;;;;;5042290;28;20677;-58
2023/05/18 04:00:53;;;;;;;6.67;2.63;;;7.50;99.90;;;;;;5037112;28;20203;-58
2023/05/18 04:03:23;;;;;;;4.97;3.10;;;7.50;99.90;;;;;;5038180;28;20730;-58
2023/05/18 04:05:50;;;;;;;5.17;2.40;;;7.50;99.90;;;;;;5040960;28;20741;-58
2023/05/18 04:08:18;;;;;;;4.73;2.77;;;7.50;99.90;;;;;;5034471;28;20449;-59
2023/05/18 04:10:45;;;;;;;9.77;3.10;;;7.50;99.90;;;;;;5033592;28;20198;-58
2023/05/18 04:13:12;;;;;;;5.30;2.87;;;7.50;99.90;;;;;;5042382;28;20720;-58
2023/05/18 04:15:39;;;;;;;6.60;2.80;;;7.40;99.90;;;;;;5047456;28;20608;-58
2023/05/18 04:18:07;;;;;;;8.63;3.23;;;7.40;99.90;;;;;;5049421;28;20204;-58
2023/05/18 04:20:34;;;;;;;4.57;2.67;;;7.70;99.90;;;;;;5041151;28;20198;-58
2023/05/18 04:23:02;;;;;;;4.90;2.77;;;7.80;99.90;;;;;;5041815;28;20215;-58
2023/05/18 04:25:29;;;;;;;7.43;2.67;;;7.70;99.90;;;;;;5039023;28;20211;-58
2023/05/18 04:27:56;;;;;;;6.30;2.93;;;7.70;99.90;;;;;;5045195;28;20215;-59
2023/05/18 04:30:26;;;;;;;6.40;2.80;;;7.80;99.90;;;;;;5041984;28;20214;-58
2023/05/18 04:32:53;;;;;;;10.07;3.20;;;7.70;99.90;;;;;;5037300;28;20717;-59
2023/05/18 04:35:20;;;;;;;8.43;2.97;;;7.60;99.90;;;;;;5042557;28;20198;-58
2023/05/18 04:37:47;;;;;;;7.30;2.77;;;7.60;99.90;;;;;;5044274;28;20212;-58
2023/05/18 04:40:15;;;;;;;6.10;3.33;;;7.60;99.90;;;;;;5040580;28;20260;-58
2023/05/18 04:42:46;;;;;;;6.80;3.13;;;7.50;99.90;;;;;;5038819;28;20692;-58
2023/05/18 04:45:16;;;;;;;4.57;3.37;;;7.60;99.90;;;;;;5039469;28;20191;-58
2023/05/18 04:47:45;;;;;;;5.43;3.10;;;7.50;99.90;;;;;;5038381;28;20294;-58
2023/05/18 04:50:16;;;;;;;3.97;2.90;;;7.70;99.90;;;;;;5030507;28;20291;-59
2023/05/18 04:52:47;;;;;;;3.97;3.07;;;7.60;99.90;;;;;;5033570;28;20306;-58
2023/05/18 04:55:24;;;;;;;7.27;3.30;;;7.60;99.90;;;;;;5041215;28;20243;-58
2023/05/18 04:57:55;;;;;;;8.07;3.50;;;7.60;99.90;;;;;;5042494;28;20204;-58
2023/05/18 05:00:24;;;;;;;8.10;3.27;;;7.60;99.90;;;;;;5033510;28;20301;-59
2023/05/18 05:02:52;;;;;;;6.00;3.37;;;7.50;99.90;;;;;;5039837;28;20570;-58
2023/05/18 05:05:23;;;;;;;5.50;3.07;;;7.60;99.90;;;;;;5040929;28;20205;-59
2023/05/18 05:07:51;;;;;;;5.73;3.00;;;7.60;99.90;;;;;;5040882;28;20204;-58
2023/05/18 05:10:21;;;;;;;6.23;3.23;;;7.50;99.90;;;;;;5043835;28;20325;-58
2023/05/18 05:12:51;;;;;;;7.47;3.33;;;7.70;99.90;;;;;;5036303;28;20204;-58
2023/05/18 05:15:19;;;;;;;5.57;3.10;;;7.70;99.90;;;;;;5055761;28;20307;-59
2023/05/18 05:17:47;;;;;;;5.17;3.10;;;7.80;99.90;;;;;;5033890;28;20253;-59
2023/05/18 05:20:15;;;;;;;6.20;3.20;;;7.80;99.90;;;;;;5034247;28;20330;-59
2023/05/18 05:22:42;;;;;;;7.40;3.57;;;7.80;99.90;;;;;;5036007;28;20207;-59
2023/05/18 05:25:10;;;;;;;5.23;3.03;;;7.90;99.90;;;;;;5039400;28;20724;-58
2023/05/18 05:27:37;;;;;;;9.17;3.23;;;7.80;99.90;;;;;;5036998;28;20682;-58
2023/05/18 05:30:04;;;;;;;7.17;3.50;;;7.80;99.90;;;;;;5044108;28;20311;-59
2023/05/18 05:32:31;;;;;;;5.17;3.13;;;7.90;99.90;;;;;;5037521;28;20226;-59
2023/05/18 05:34:58;;;;;;;8.77;3.77;;;7.90;99.90;;;;;;5029827;28;20211;-58
2023/05/18 05:37:25;;;;;;;9.77;2.90;;;8.10;99.90;;;;;;5041633;28;20696;-59
2023/05/18 05:39:52;;;;;;;9.30;3.37;;;8.30;99.90;;;;;;5040461;28;20297;-59
2023/05/18 05:42:19;;;;;;;7.33;3.00;;;8.30;99.90;;;;;;5038785;28;20204;-59
2023/05/18 05:44:46;;;;;;;5.10;3.07;;;8.30;99.90;;;;;;5031059;28;21132;-61
2023/05/18 05:47:13;;;;;;;6.20;3.00;;;8.40;99.90;;;;;;5039192;28;20232;-59
2023/05/18 05:49:40;;;;;;;9.33;3.27;;;8.40;99.90;;;;;;5036362;28;20277;-59
2023/05/18 05:52:07;;;;;;;6.20;2.93;;;8.40;99.90;;;;;;5041241;28;20204;-58
2023/05/18 05:54:34;;;;;;;9.13;3.13;;;8.30;99.90;;;;;;5039568;28;20199;-59
2023/05/18 05:57:02;;;;;;;6.40;3.30;;;8.30;99.90;;;;;;5037884;28;20200;-59
2023/05/18 05:59:29;;;;;;;7.57;3.13;;;8.20;99.90;;;;;;5037515;28;20294;-58
2023/05/18 06:01:59;;;;;;;8.57;3.70;;;8.40;99.90;;;;;;5027513;28;20214;-58
2023/05/18 06:04:26;;;;;;;11.67;3.40;;;8.40;99.90;;;;;;5040923;28;20211;-58
2023/05/18 06:06:53;;;;;;;7.90;3.40;;;8.40;99.90;;;;;;5039624;28;20623;-58
2023/05/18 06:09:20;;;;;;;12.23;3.33;;;8.50;99.90;;;;;;5042816;28;20219;-58
2023/05/18 06:11:47;;;;;;;8.20;3.07;;;8.70;99.90;;;;;;5046822;28;20198;-59
2023/05/18 06:14:14;;;;;;;8.23;3.17;;;8.90;99.90;;;;;;5044879;28;20243;-58
2023/05/18 06:16:41;;;;;;;5.03;3.00;;;9.00;99.90;;;;;;5045699;28;20688;-59
2023/05/18 06:19:08;;;;;;;6.03;3.10;;;9.30;99.90;;;;;;5041600;28;20207;-59
2023/05/18 06:21:35;;;;;;;9.80;3.20;;;9.30;99.90;;;;;;5037623;28;20227;-60
2023/05/18 06:24:03;;;;;;;7.63;3.20;;;9.40;99.90;;;;;;5040598;28;20211;-59
2023/05/18 06:26:31;;;;;;;5.07;2.90;;;9.70;99.90;;;;;;5039710;28;20204;-59
2023/05/18 06:28:58;;;;;;;5.70;2.37;;;9.90;99.90;;;;;;5040060;28;20254;-59
2023/05/18 06:31:25;;;;;;;5.97;3.27;;;10.10;99.90;;;;;;5036924;28;20212;-59
2023/05/18 06:33:55;;;;;;;6.63;3.10;;;10.20;99.90;;;;;;5034930;28;20598;-59
2023/05/18 06:36:22;;;;;;;9.33;3.10;;;10.30;99.90;;;;;;5035966;28;20197;-59
2023/05/18 06:38:49;;;;;;;5.30;3.10;;;10.30;99.90;;;;;;5040413;28;20204;-58
2023/05/18 06:41:16;;;;;;;8.47;3.07;;;10.40;99.90;;;;;;5054352;28;20219;-59
2023/05/18 06:43:43;;;;;;;5.87;2.30;;;10.50;99.90;;;;;;5042931;28;20719;-59
2023/05/18 06:46:19;;;;;;;6.57;3.07;;;10.60;99.90;;;;;;5039851;28;20201;-58
2023/05/18 06:48:46;;;;;;;6.73;3.77;;;10.70;99.90;;;;;;5042401;28;20548;-59
2023/05/18 06:51:15;;;;;;;8.47;3.13;;;10.80;99.90;;;;;;5042230;28;20680;-60
2023/05/18 06:53:42;;;;;;;7.07;2.90;;;10.70;99.90;;;;;;5039620;28;20226;-58
2023/05/18 06:56:12;;;;;;;5.63;3.20;;;10.80;99.90;;;;;;5033939;28;20663;-57
2023/05/18 06:58:41;;;;;;;3.77;2.53;;;11.00;99.90;;;;;;5036497;28;20202;-57
2023/05/18 07:01:08;;;;;;;10.27;2.87;;;11.10;99.90;;;;;;5042787;28;20201;-58
2023/05/18 07:03:36;;;;;;;5.57;3.13;;;11.30;99.90;;;;;;5041318;28;20326;-58
2023/05/18 07:06:03;;;;;;;6.67;2.90;;;11.10;99.90;;;;;;4681383;28;9999629;-59
2023/05/18 07:08:30;;;;;;;8.57;2.87;;;11.00;99.90;;;;;;5030390;28;20197;-58
2023/05/18 07:10:58;;;;;;;7.83;2.73;;;11.20;99.90;;;;;;5040492;28;20196;-58
2023/05/18 07:13:25;;;;;;;6.63;2.50;;;11.30;99.90;;;;;;5042986;28;20215;-58
2023/05/18 07:15:52;;;;;;;4.33;2.27;;;11.60;99.90;;;;;;5041117;28;20712;-58
2023/05/18 07:18:19;;;;;;;6.90;3.00;;;11.60;99.90;;;;;;5042630;28;22562;-58
2023/05/18 07:20:45;;;;;;;5.23;2.53;;;11.60;99.90;;;;;;5044806;28;20705;-59
2023/05/18 07:23:13;;;;;;;5.73;2.53;;;11.50;99.90;;;;;;5042760;28;20205;-62
2023/05/18 07:25:40;;;;;;;5.03;2.40;;;11.50;99.90;;;;;;5042958;28;20208;-60
2023/05/18 07:28:07;;;;;;;6.10;2.63;;;11.50;99.90;;;;;;5026434;28;20198;-57
2023/05/18 07:30:34;;;;;;;8.23;2.30;;;11.80;99.90;;;;;;5040895;28;20218;-58
2023/05/18 07:33:01;;;;;;;11.03;3.13;;;11.70;99.90;;;;;;5009996;28;20230;-58
2023/05/18 07:35:29;;;;;;;9.70;2.77;;;11.90;99.90;;;;;;5031956;28;20206;-58
2023/05/18 07:37:56;;;;;;;6.47;2.80;;;12.00;99.90;;;;;;5025877;28;20207;-58
2023/05/18 07:40:23;;;;;;;8.93;4.97;;;12.10;99.90;;;;;;5032281;28;20217;-58
2023/05/18 07:42:50;;;;;;;4.30;3.30;;;12.20;99.90;;;;;;5027757;28;20210;-58
2023/05/18 07:45:17;;;;;;;12.40;3.53;;;12.10;99.90;;;;;;5035494;28;20213;-59
2023/05/18 07:47:44;;;;;;;6.30;2.77;;;12.20;99.90;;;;;;5030996;28;20217;-58
2023/05/18 07:50:11;;;;;;;5.13;2.70;;;12.40;99.90;;;;;;5028275;28;20224;-58
2023/05/18 07:52:38;;;;;;;6.93;2.70;;;12.30;99.90;;;;;;5032270;28;20919;-58
2023/05/18 07:55:06;;;;;;;9.20;3.10;;;12.50;99.90;;;;;;5032161;28;20206;-59
2023/05/18 07:57:34;;;;;;;6.73;2.37;;;12.80;99.90;;;;;;5039262;28;20199;-66
2023/05/18 08:00:03;;;;;;;5.47;3.00;;;12.50;99.90;;;;;;5039678;28;20199;-58
2023/05/18 08:02:31;;;;;;;6.03;2.50;;;13.00;99.90;;;;;;5041043;28;20210;-60
2023/05/18 08:05:00;;;;;;;8.23;2.60;;;13.00;99.90;;;;;;5032267;28;20219;-58
2023/05/18 08:07:28;;;;;;;9.47;2.70;;;13.00;99.90;;;;;;5036982;28;20206;-60
2023/05/18 08:09:55;;;;;;;4.20;2.50;;;13.00;99.90;;;;;;5038087;28;20762;-60
2023/05/18 08:12:23;;;;;;;8.67;2.70;;;13.20;99.90;;;;;;5029711;28;20203;-60
2023/05/18 08:14:50;;;;;;;7.03;2.67;;;13.00;99.90;;;;;;5037130;28;20792;-60
2023/05/18 08:17:18;;;;;;;9.27;2.87;;;13.10;99.90;;;;;;5048592;28;20568;-58
2023/05/18 08:19:46;;;;;;;7.40;3.40;;;13.40;99.90;;;;;;5046438;28;20214;-58
2023/05/18 08:22:14;;;;;;;9.27;2.80;;;13.40;99.90;;;;;;5054985;28;20200;-59
2023/05/18 08:24:41;;;;;;;9.13;2.60;;;13.40;99.90;;;;;;5040548;28;20559;-58
2023/05/18 08:27:10;;;;;;;7.73;2.93;;;13.80;99.90;;;;;;5047140;28;20198;-60
2023/05/18 08:29:37;;;;;;;4.03;2.40;;;14.00;99.90;;;;;;5046013;28;20300;-58
2023/05/18 08:32:07;;;;;;;8.00;2.40;;;13.90;99.90;;;;;;5044334;28;20195;-59
2023/05/18 08:34:34;;;;;;;5.40;2.77;;;13.90;99.90;;;;;;5044609;28;20192;-58
2023/05/18 08:37:01;;;;;;;8.57;3.20;;;14.10;99.90;;;;;;5046910;28;20202;-58
2023/05/18 08:39:30;;;;;;;9.47;3.03;;;13.90;99.90;;;;;;5048031;28;20257;-59
2023/05/18 08:42:28;;;;;;;9.83;3.87;;;14.40;99.90;;;;;;5046687;28;20203;-58
2023/05/18 08:45:26;;;;;;;6.27;2.80;;;14.70;99.90;;;;;;5036327;28;20200;-58
2023/05/18 08:47:56;;;;;;;6.33;3.27;;;14.00;99.90;;;;;;5047681;28;20204;-58
2023/05/18 08:50:25;;;;;;;6.60;2.97;;;13.30;99.90;;;;;;5047835;28;20722;-58
2023/05/18 08:52:58;;;;;;;7.77;2.80;;;13.40;99.90;;;;;;5043618;28;20207;-58
2023/05/18 08:55:26;;;;;;;7.97;2.50;;;13.00;99.90;;;;;;5045468;28;20271;-58
2023/05/18 08:57:58;;;;;;;7.43;2.57;;;12.80;99.90;;;;;;5044994;28;20562;-58
2023/05/18 09:00:26;;;;;;;4.93;1.77;;;13.00;99.90;;;;;;5037919;28;20623;-58
2023/05/18 09:02:54;;;;;;;4.80;2.80;;;13.50;99.90;;;;;;5043100;28;20235;-58
2023/05/18 09:05:22;;;;;;;6.80;2.67;;;13.90;99.90;;;;;;5048288;28;21776;-58
2023/05/18 09:07:50;;;;;;;6.13;2.73;;;13.80;99.90;;;;;;5036992;28;20211;-58
2023/05/18 09:10:17;;;;;;;8.07;3.23;;;13.80;99.90;;;;;;5047301;28;20236;-58
2023/05/18 09:12:46;;;;;;;8.47;3.10;;;13.50;99.90;;;;;;5036059;28;20195;-59
2023/05/18 09:15:18;;;;;;;8.33;3.30;;;13.40;99.90;;;;;;5040405;28;22273;-58
2023/05/18 09:17:45;;;;;;;7.37;4.03;;;13.40;99.90;;;;;;5044082;28;20242;-58
2023/05/18 09:20:13;;;;;;;7.07;2.83;;;14.00;99.90;;;;;;5045294;28;21048;-58
2023/05/18 09:22:40;;;;;;;4.43;2.80;;;14.30;99.90;;;;;;5040114;28;20207;-59
2023/05/18 09:25:10;;;;;;;5.57;2.57;;;14.60;99.90;;;;;;5047320;28;20230;-60
2023/05/18 09:27:38;;;;;;;6.23;3.47;;;14.50;99.90;;;;;;5042413;28;20204;-60
2023/05/18 09:30:10;;;;;;;5.67;3.13;;;14.30;99.90;;;;;;5039571;28;20583;-59
2023/05/18 09:32:37;;;;;;;6.07;3.17;;;14.30;99.90;;;;;;5037228;28;22318;-60
2023/05/18 09:35:07;;;;;;;6.93;3.30;;;14.00;99.90;;;;;;5039156;28;20666;-60
2023/05/18 09:37:35;;;;;;;11.80;2.97;;;13.50;99.90;;;;;;5038657;28;20208;-62
2023/05/18 09:40:04;;;;;;;7.67;2.87;;;13.30;99.90;;;;;;5040804;28;20686;-58
2023/05/18 09:42:41;;;;;;;9.07;3.30;;;13.20;99.90;;;;;;5037114;28;20706;-59
2023/05/18 09:45:25;;;;;;;7.00;2.77;;;13.50;99.90;;;;;;5043150;28;20221;-61
2023/05/18 09:47:53;;;;;;;7.93;2.60;;;13.70;99.90;;;;;;5033162;28;20209;-64
2023/05/18 09:50:21;;;;;;;5.33;2.77;;;14.00;99.90;;;;;;5034594;28;21377;-59
2023/05/18 09:52:49;;;;;;;4.57;2.50;;;14.20;99.90;;;;;;5040067;28;20681;-58
2023/05/18 09:55:17;;;;;;;10.73;3.07;;;13.60;99.90;;;;;;5043592;28;20197;-58
2023/05/18 09:57:49;;;;;;;6.50;3.07;;;13.70;99.90;;;;;;5028351;28;20262;-59
2023/05/18 10:00:18;;;;;;;6.23;3.13;;;14.00;99.90;;;;;;5044187;28;20367;-59
2023/05/18 10:02:49;;;;;;;6.10;2.90;;;14.10;99.90;;;;;;5038054;28;20204;-58
2023/05/18 10:05:32;;;;;;;9.77;2.73;;;13.60;99.90;;;;;;5039875;28;20204;-60
2023/05/18 10:08:01;;;;;;;3.87;2.37;;;13.50;99.90;;;;;;5040568;28;20203;-58
2023/05/18 10:10:29;;;;;;;8.57;3.10;;;13.60;99.90;;;;;;5029229;28;20755;-58
2023/05/18 10:12:57;;;;;;;7.23;2.60;;;13.50;99.90;;;;;;5020258;28;20208;-58
2023/05/18 10:15:24;;;;;;;6.10;2.90;;;14.10;99.90;;;;;;5039187;28;20294;-60
2023/05/18 10:17:55;;;;;;;12.03;3.30;;;13.90;99.90;;;;;;5039719;28;20270;-58
2023/05/18 10:20:23;;;;;;;4.83;2.63;;;14.00;99.90;;;;;;5036582;28;21170;-58
2023/05/18 10:22:53;;;;;;;6.37;3.17;;;13.70;99.90;;;;;;5033282;28;20215;-59
2023/05/18 10:25:23;;;;;;;6.83;2.73;;;13.90;99.90;;;;;;5036861;28;20213;-65
2023/05/18 10:27:55;;;;;;;4.57;2.57;;;13.80;99.90;;;;;;5034057;28;20200;-59
2023/05/18 10:30:22;;;;;;;6.60;2.40;;;14.30;99.90;;;;;;5043831;28;20211;-58
2023/05/18 10:32:51;;;;;;;4.57;3.20;;;14.40;99.90;;;;;;5034046;28;20255;-58
2023/05/18 10:35:18;;;;;;;4.43;2.70;;;14.40;99.90;;;;;;5038984;28;20249;-59
2023/05/18 10:37:46;;;;;;;7.83;3.47;;;13.90;99.90;;;;;;5027565;28;20210;-59
2023/05/18 10:40:14;;;;;;;7.97;2.70;;;13.90;99.90;;;;;;5034896;28;20207;-59
2023/05/18 10:42:42;;;;;;;6.67;3.20;;;14.20;99.90;;;;;;5040025;28;20278;-58
2023/05/18 10:45:09;;;;;;;4.93;2.83;;;13.90;1.00;;;;;;5030672;28;20213;-59
2023/05/18 10:47:38;;;;;;;4.47;2.73;;;14.00;99.90;;;;;;5030843;28;20678;-60
2023/05/18 10:50:07;;;;;;;7.63;3.33;;;14.50;99.90;;;;;;5034889;28;20553;-62
2023/05/18 10:52:36;;;;;;;8.57;3.33;;;14.80;99.90;;;;;;5024979;28;20191;-60
2023/05/18 10:55:04;;;;;;;6.87;2.77;;;15.00;99.90;;;;;;5035717;28;20193;-59
2023/05/18 10:57:39;;;;;;;7.40;2.53;;;15.10;29.30;;;;;;5039662;28;20201;-59
2023/05/18 11:00:09;;;;;;;6.87;2.80;;;15.10;99.90;;;;;;5042248;28;20245;-59
2023/05/18 11:02:41;;;;;;;4.90;2.57;;;14.80;1.00;;;;;;5036463;28;20221;-59
2023/05/18 11:05:09;;;;;;;4.10;2.90;;;14.80;99.90;;;;;;5039142;28;20206;-59
2023/05/18 11:07:37;;;;;;;10.20;2.67;;;14.20;99.90;;;;;;5037034;28;20204;-59
2023/05/18 11:10:09;;;;;;;7.50;2.83;;;14.30;99.90;;;;;;5037408;28;20218;-59
2023/05/18 11:12:40;;;;;;;6.77;2.77;;;14.90;99.90;;;;;;5040794;28;20638;-59
2023/05/18 11:15:07;;;;;;;4.00;2.47;;;15.20;99.90;;;;;;5044129;28;20378;-59
2023/05/18 11:17:35;;;;;;;5.00;2.60;;;15.70;99.90;;;;;;5036008;28;20200;-60
2023/05/18 11:20:06;;;;;;;4.33;2.70;;;15.60;99.90;;;;;;5050778;28;20303;-60
2023/05/18 11:23:00;;;;;;;6.50;2.80;;;15.80;99.90;;;;;;5039628;28;20576;-60
2023/05/18 11:25:35;;;;;;;4.87;2.50;;;16.10;99.90;;;;;;5035097;28;20204;-59
2023/05/18 11:28:04;;;;;;;7.73;2.67;;;15.50;99.90;;;;;;5030813;28;20379;-60
2023/05/18 11:30:40;;;;;;;8.50;3.20;;;15.30;99.90;;;;;;5034086;28;20230;-59
2023/05/18 11:33:31;;;;;;;6.57;3.00;;;16.00;99.90;;;;;;5031101;28;20350;-59
2023/05/18 11:36:10;;;;;;;7.23;3.60;;;15.50;99.90;;;;;;5036576;28;20217;-61
2023/05/18 11:39:05;;;;;;;5.73;3.00;;;15.90;99.90;;;;;;5033587;28;20207;-60
2023/05/18 11:41:42;;;;;;;7.13;3.10;;;15.60;99.90;;;;;;5039997;28;20648;-60
2023/05/18 11:44:14;;;;;;;6.07;2.67;;;15.90;99.90;;;;;;5032932;28;20229;-59
2023/05/18 11:47:00;;;;;;;7.50;3.10;;;16.30;99.90;;;;;;5026920;28;21887;-59
2023/05/18 11:49:29;;;;;;;7.20;2.67;;;16.40;99.90;;;;;;5029488;28;20203;-59
2023/05/18 11:52:03;;;;;;;6.70;2.80;;;17.10;99.90;;;;;;5033037;28;20224;-60
2023/05/18 11:54:57;;;;;;;7.30;2.80;;;17.10;83.20;;;;;;5036243;28;20229;-62
2023/05/18 11:57:33;;;;;;;8.77;3.20;;;17.20;99.90;;;;;;5029235;28;20365;-59
2023/05/18 12:00:06;;;;;;;8.93;2.90;;;17.00;1.00;;;;;;5036192;28;20458;-60
2023/05/18 12:02:34;;;;;;;4.30;2.87;;;16.60;99.90;;;;;;5034043;28;20193;-60
2023/05/18 12:05:07;;;;;;;5.50;2.90;;;16.60;99.90;;;;;;5033383;28;20205;-64
2023/05/18 12:07:35;;;;;;;5.20;3.17;;;16.90;99.90;;;;;;5033208;28;20846;-60
2023/05/18 12:10:03;;;;;;;6.20;2.70;;;17.30;99.90;;;;;;5040802;28;20221;-59
2023/05/18 12:12:31;;;;;;;5.50;2.87;;;17.60;99.90;;;;;;5036241;28;20205;-60
2023/05/18 12:15:00;;;;;;;5.73;3.17;;;17.40;99.90;;;;;;5036592;28;20258;-59
2023/05/18 12:17:40;;;;;;;6.73;2.30;;;17.30;5.00;;;;;;5036789;28;20672;-61
2023/05/18 12:20:16;;;;;;;10.07;3.20;;;17.10;99.90;;;;;;5035253;28;20722;-59
2023/05/18 12:22:52;;;;;;;7.07;2.90;;;17.00;99.90;;;;;;5033854;28;21570;-60
2023/05/18 12:25:22;;;;;;;5.00;3.30;;;17.70;99.90;;;;;;5036887;28;20215;-63
2023/05/18 12:27:51;;;;;;;4.83;2.67;;;18.10;1.00;;;;;;5034778;28;20229;-60
2023/05/18 12:30:20;;;;;;;7.27;3.13;;;17.80;99.90;;;;;;5030249;28;20913;-59
2023/05/18 12:32:56;;;;;;;6.97;3.00;;;16.90;99.20;;;;;;5033207;28;20230;-60
2023/05/18 12:35:24;;;;;;;6.53;3.47;;;17.00;99.90;;;;;;5035836;28;20204;-59
2023/05/18 12:37:54;;;;;;;6.17;3.27;;;17.20;99.90;;;;;;5044315;28;20208;-58
2023/05/18 12:40:22;;;;;;;6.40;3.40;;;17.30;99.90;;;;;;5028468;28;20335;-59
2023/05/18 12:42:58;;;;;;;8.57;3.23;;;16.90;99.90;;;;;;5025255;28;20542;-59
2023/05/18 12:45:27;;;;;;;5.73;3.60;;;17.40;99.20;;;;;;5031963;28;20207;-60
2023/05/18 12:47:54;;;;;;;6.10;2.83;;;17.10;99.90;;;;;;5038978;28;20208;-61
2023/05/18 12:50:25;;;;;;;6.67;3.00;;;17.80;99.90;;;;;;5040817;28;20241;-61
2023/05/18 12:52:55;;;;;;;5.40;3.10;;;18.30;99.90;;;;;;5039172;28;21235;-61
2023/05/18 12:55:23;;;;;;;5.53;3.03;;;18.10;1.00;;;;;;5037733;28;20203;-58
2023/05/18 12:58:14;;;;;;;4.30;2.37;;;17.80;35.90;;;;;;5037802;28;20290;-58
2023/05/18 13:00:46;;;;;;;6.67;2.97;;;17.30;99.90;;;;;;5035873;28;20215;-58
2023/05/18 13:03:18;;;;;;;4.10;3.07;;;17.80;99.90;;;;;;5042173;28;20865;-58